sensor_id;sensor_type;location;lat;lon;timestamp;P1;durP1;ratioP1;P2;durP2;ratioP2
17614;SDS011;8926;49.720;6.576;2023-10-09T00:01:48;3.70;;;3.40;;
17614;SDS011;8926;49.720;6.576;2023-10-09T00:04:14;3.83;;;3.53;;
17614;SDS011;8926;49.720;6.576;2023-10-09T00:06:40;3.93;;;3.63;;
17614;SDS011;8926;49.720;6.576;2023-10-09T00:09:08;3.57;;;3.23;;
17614;SDS011;8926;49.720;6.576;2023-10-09T00:11:55;3.30;;;3.00;;
17614;SDS011;8926;49.720;6.576;2023-10-09T00:14:25;3.20;;;3.00;;
17614;SDS011;8926;49.720;6.576;2023-10-09T00:16:55;3.40;;;3.20;;
17614;SDS011;8926;49.720;6.576;2023-10-09T00:19:28;3.47;;;3.17;;
17614;SDS011;8926;49.720;6.576;2023-10-09T00:21:57;4.10;;;3.80;;
17614;SDS011;8926;49.720;6.576;2023-10-09T00:24:23;6.73;;;3.90;;
17614;SDS011;8926;49.720;6.576;2023-10-09T00:26:53;4.10;;;3.70;;
17614;SDS011;8926;49.720;6.576;2023-10-09T00:29:40;3.87;;;3.57;;
17614;SDS011;8926;49.720;6.576;2023-10-09T00:32:10;3.87;;;3.53;;
17614;SDS011;8926;49.720;6.576;2023-10-09T00:34:41;3.70;;;3.40;;
17614;SDS011;8926;49.720;6.576;2023-10-09T00:37:10;3.43;;;3.13;;
17614;SDS011;8926;49.720;6.576;2023-10-09T00:39:41;3.33;;;3.13;;
17614;SDS011;8926;49.720;6.576;2023-10-09T00:42:10;3.67;;;3.37;;
17614;SDS011;8926;49.720;6.576;2023-10-09T00:44:50;3.90;;;3.53;;
17614;SDS011;8926;49.720;6.576;2023-10-09T00:47:16;3.60;;;3.30;;
17614;SDS011;8926;49.720;6.576;2023-10-09T00:49:55;3.57;;;3.30;;
17614;SDS011;8926;49.720;6.576;2023-10-09T00:52:29;3.33;;;3.03;;
17614;SDS011;8926;49.720;6.576;2023-10-09T00:55:23;4.83;;;4.43;;
17614;SDS011;8926;49.720;6.576;2023-10-09T00:58:03;4.77;;;4.20;;
17614;SDS011;8926;49.720;6.576;2023-10-09T01:00:40;4.10;;;3.80;;
17614;SDS011;8926;49.720;6.576;2023-10-09T01:03:09;3.67;;;3.37;;
17614;SDS011;8926;49.720;6.576;2023-10-09T01:05:44;4.23;;;3.50;;
17614;SDS011;8926;49.720;6.576;2023-10-09T01:08:20;3.33;;;3.13;;
17614;SDS011;8926;49.720;6.576;2023-10-09T01:11:04;3.67;;;3.37;;
17614;SDS011;8926;49.720;6.576;2023-10-09T01:13:43;3.77;;;3.40;;
17614;SDS011;8926;49.720;6.576;2023-10-09T01:16:19;3.70;;;3.40;;
17614;SDS011;8926;49.720;6.576;2023-10-09T01:18:50;4.70;;;4.30;;
17614;SDS011;8926;49.720;6.576;2023-10-09T01:21:22;4.20;;;3.90;;
17614;SDS011;8926;49.720;6.576;2023-10-09T01:23:51;3.90;;;3.60;;
17614;SDS011;8926;49.720;6.576;2023-10-09T01:26:42;3.70;;;3.40;;
17614;SDS011;8926;49.720;6.576;2023-10-09T01:29:15;3.87;;;3.53;;
17614;SDS011;8926;49.720;6.576;2023-10-09T01:31:45;3.30;;;3.10;;
17614;SDS011;8926;49.720;6.576;2023-10-09T01:34:24;4.60;;;3.67;;
17614;SDS011;8926;49.720;6.576;2023-10-09T01:37:02;3.30;;;3.07;;
17614;SDS011;8926;49.720;6.576;2023-10-09T01:39:30;3.77;;;3.47;;
17614;SDS011;8926;49.720;6.576;2023-10-09T01:41:56;3.33;;;3.03;;
17614;SDS011;8926;49.720;6.576;2023-10-09T01:44:28;2.70;;;2.50;;
17614;SDS011;8926;49.720;6.576;2023-10-09T01:46:55;3.40;;;3.10;;
17614;SDS011;8926;49.720;6.576;2023-10-09T01:49:22;3.53;;;3.07;;
17614;SDS011;8926;49.720;6.576;2023-10-09T01:51:54;3.13;;;2.90;;
17614;SDS011;8926;49.720;6.576;2023-10-09T01:54:19;2.80;;;2.60;;
17614;SDS011;8926;49.720;6.576;2023-10-09T01:57:01;2.60;;;2.40;;
17614;SDS011;8926;49.720;6.576;2023-10-09T01:59:42;3.20;;;3.00;;
17614;SDS011;8926;49.720;6.576;2023-10-09T02:02:29;3.53;;;3.23;;
17614;SDS011;8926;49.720;6.576;2023-10-09T02:05:01;2.83;;;2.63;;
17614;SDS011;8926;49.720;6.576;2023-10-09T02:07:30;3.63;;;3.33;;
17614;SDS011;8926;49.720;6.576;2023-10-09T02:10:05;2.70;;;2.50;;
17614;SDS011;8926;49.720;6.576;2023-10-09T02:12:36;2.77;;;2.57;;
17614;SDS011;8926;49.720;6.576;2023-10-09T02:15:02;3.03;;;2.83;;
17614;SDS011;8926;49.720;6.576;2023-10-09T02:17:40;3.00;;;2.80;;
17614;SDS011;8926;49.720;6.576;2023-10-09T02:20:17;3.87;;;3.53;;
17614;SDS011;8926;49.720;6.576;2023-10-09T02:22:43;3.37;;;3.07;;
17614;SDS011;8926;49.720;6.576;2023-10-09T02:25:08;3.60;;;3.30;;
17614;SDS011;8926;49.720;6.576;2023-10-09T02:27:36;3.17;;;2.90;;
17614;SDS011;8926;49.720;6.576;2023-10-09T02:30:18;3.70;;;3.40;;
17614;SDS011;8926;49.720;6.576;2023-10-09T02:32:54;3.50;;;3.23;;
17614;SDS011;8926;49.720;6.576;2023-10-09T02:35:31;2.93;;;2.73;;
17614;SDS011;8926;49.720;6.576;2023-10-09T02:38:04;3.00;;;2.80;;
17614;SDS011;8926;49.720;6.576;2023-10-09T02:40:35;3.33;;;3.10;;
17614;SDS011;8926;49.720;6.576;2023-10-09T02:43:27;3.07;;;2.87;;
17614;SDS011;8926;49.720;6.576;2023-10-09T02:46:00;3.60;;;3.30;;
17614;SDS011;8926;49.720;6.576;2023-10-09T02:48:39;3.30;;;3.00;;
17614;SDS011;8926;49.720;6.576;2023-10-09T02:51:08;3.07;;;2.87;;
17614;SDS011;8926;49.720;6.576;2023-10-09T02:53:40;2.73;;;2.53;;
17614;SDS011;8926;49.720;6.576;2023-10-09T02:56:05;2.60;;;2.40;;
17614;SDS011;8926;49.720;6.576;2023-10-09T02:58:37;2.90;;;2.70;;
17614;SDS011;8926;49.720;6.576;2023-10-09T03:01:08;3.63;;;2.90;;
17614;SDS011;8926;49.720;6.576;2023-10-09T03:03:34;3.47;;;3.20;;
17614;SDS011;8926;49.720;6.576;2023-10-09T03:06:00;3.20;;;3.00;;
17614;SDS011;8926;49.720;6.576;2023-10-09T03:08:26;3.13;;;2.83;;
17614;SDS011;8926;49.720;6.576;2023-10-09T03:10:52;3.20;;;2.90;;
17614;SDS011;8926;49.720;6.576;2023-10-09T03:13:17;2.70;;;2.50;;
17614;SDS011;8926;49.720;6.576;2023-10-09T03:15:44;3.83;;;3.53;;
17614;SDS011;8926;49.720;6.576;2023-10-09T03:18:10;3.50;;;3.20;;
17614;SDS011;8926;49.720;6.576;2023-10-09T03:20:39;3.17;;;2.97;;
17614;SDS011;8926;49.720;6.576;2023-10-09T03:23:05;3.10;;;2.90;;
17614;SDS011;8926;49.720;6.576;2023-10-09T03:25:34;3.20;;;2.90;;
17614;SDS011;8926;49.720;6.576;2023-10-09T03:28:00;3.40;;;3.10;;
17614;SDS011;8926;49.720;6.576;2023-10-09T03:30:25;3.00;;;2.80;;
17614;SDS011;8926;49.720;6.576;2023-10-09T03:32:51;3.00;;;2.80;;
17614;SDS011;8926;49.720;6.576;2023-10-09T03:35:20;2.93;;;2.73;;
17614;SDS011;8926;49.720;6.576;2023-10-09T03:37:54;2.70;;;2.50;;
17614;SDS011;8926;49.720;6.576;2023-10-09T03:40:43;2.87;;;2.67;;
17614;SDS011;8926;49.720;6.576;2023-10-09T03:43:09;2.87;;;2.67;;
17614;SDS011;8926;49.720;6.576;2023-10-09T03:45:39;3.47;;;3.23;;
17614;SDS011;8926;49.720;6.576;2023-10-09T03:48:10;3.47;;;2.87;;
17614;SDS011;8926;49.720;6.576;2023-10-09T03:50:43;3.30;;;3.10;;
17614;SDS011;8926;49.720;6.576;2023-10-09T03:53:10;4.60;;;4.20;;
17614;SDS011;8926;49.720;6.576;2023-10-09T03:55:38;3.77;;;3.50;;
17614;SDS011;8926;49.720;6.576;2023-10-09T03:58:05;3.70;;;3.40;;
17614;SDS011;8926;49.720;6.576;2023-10-09T04:00:32;3.67;;;3.37;;
17614;SDS011;8926;49.720;6.576;2023-10-09T04:03:06;3.60;;;3.27;;
17614;SDS011;8926;49.720;6.576;2023-10-09T04:05:31;3.23;;;3.03;;
17614;SDS011;8926;49.720;6.576;2023-10-09T04:07:56;3.47;;;3.20;;
17614;SDS011;8926;49.720;6.576;2023-10-09T04:10:23;5.00;;;4.60;;
17614;SDS011;8926;49.720;6.576;2023-10-09T04:13:07;5.17;;;4.67;;
17614;SDS011;8926;49.720;6.576;2023-10-09T04:15:36;3.87;;;3.57;;
17614;SDS011;8926;49.720;6.576;2023-10-09T04:18:01;4.57;;;4.17;;
17614;SDS011;8926;49.720;6.576;2023-10-09T04:20:28;4.23;;;3.93;;
17614;SDS011;8926;49.720;6.576;2023-10-09T04:22:53;3.83;;;3.53;;
17614;SDS011;8926;49.720;6.576;2023-10-09T04:25:31;3.73;;;3.53;;
17614;SDS011;8926;49.720;6.576;2023-10-09T04:28:07;3.57;;;3.27;;
17614;SDS011;8926;49.720;6.576;2023-10-09T04:30:47;3.70;;;3.40;;
17614;SDS011;8926;49.720;6.576;2023-10-09T04:33:18;3.90;;;3.50;;
17614;SDS011;8926;49.720;6.576;2023-10-09T04:36:01;4.27;;;3.97;;
17614;SDS011;8926;49.720;6.576;2023-10-09T04:38:43;4.07;;;3.77;;
17614;SDS011;8926;49.720;6.576;2023-10-09T04:41:38;3.93;;;3.60;;
17614;SDS011;8926;49.720;6.576;2023-10-09T04:44:06;3.93;;;3.63;;
17614;SDS011;8926;49.720;6.576;2023-10-09T04:47:00;4.10;;;3.80;;
17614;SDS011;8926;49.720;6.576;2023-10-09T04:49:35;4.27;;;3.93;;
17614;SDS011;8926;49.720;6.576;2023-10-09T04:52:14;4.07;;;3.77;;
17614;SDS011;8926;49.720;6.576;2023-10-09T04:55:03;4.47;;;4.07;;
17614;SDS011;8926;49.720;6.576;2023-10-09T04:57:39;3.63;;;3.33;;
17614;SDS011;8926;49.720;6.576;2023-10-09T05:00:15;3.87;;;3.57;;
17614;SDS011;8926;49.720;6.576;2023-10-09T05:03:08;4.17;;;3.87;;
17614;SDS011;8926;49.720;6.576;2023-10-09T05:05:37;3.40;;;3.10;;
17614;SDS011;8926;49.720;6.576;2023-10-09T05:08:07;5.40;;;3.93;;
17614;SDS011;8926;49.720;6.576;2023-10-09T05:10:45;3.43;;;3.20;;
17614;SDS011;8926;49.720;6.576;2023-10-09T05:13:26;2.93;;;2.73;;
17614;SDS011;8926;49.720;6.576;2023-10-09T05:18:30;3.40;;;3.10;;
17614;SDS011;8926;49.720;6.576;2023-10-09T05:21:04;3.40;;;3.17;;
17614;SDS011;8926;49.720;6.576;2023-10-09T05:23:39;3.00;;;2.80;;
17614;SDS011;8926;49.720;6.576;2023-10-09T05:26:13;2.27;;;2.17;;
17614;SDS011;8926;49.720;6.576;2023-10-09T05:29:02;3.00;;;2.80;;
17614;SDS011;8926;49.720;6.576;2023-10-09T05:31:44;3.80;;;3.50;;
17614;SDS011;8926;49.720;6.576;2023-10-09T05:34:25;3.30;;;3.10;;
17614;SDS011;8926;49.720;6.576;2023-10-09T05:36:59;3.10;;;2.90;;
17614;SDS011;8926;49.720;6.576;2023-10-09T05:39:48;3.00;;;2.80;;
17614;SDS011;8926;49.720;6.576;2023-10-09T05:42:32;3.07;;;2.80;;
17614;SDS011;8926;49.720;6.576;2023-10-09T05:45:13;2.80;;;2.50;;
17614;SDS011;8926;49.720;6.576;2023-10-09T05:47:47;2.67;;;2.47;;
17614;SDS011;8926;49.720;6.576;2023-10-09T05:50:21;2.90;;;2.70;;
17614;SDS011;8926;49.720;6.576;2023-10-09T05:52:47;2.93;;;2.67;;
17614;SDS011;8926;49.720;6.576;2023-10-09T05:55:19;4.27;;;3.87;;
17614;SDS011;8926;49.720;6.576;2023-10-09T05:57:51;3.23;;;3.03;;
17614;SDS011;8926;49.720;6.576;2023-10-09T06:00:22;3.73;;;3.43;;
17614;SDS011;8926;49.720;6.576;2023-10-09T06:03:07;3.87;;;3.57;;
17614;SDS011;8926;49.720;6.576;2023-10-09T06:05:45;4.23;;;3.93;;
17614;SDS011;8926;49.720;6.576;2023-10-09T06:08:23;4.17;;;3.77;;
17614;SDS011;8926;49.720;6.576;2023-10-09T06:10:54;3.83;;;3.53;;
17614;SDS011;8926;49.720;6.576;2023-10-09T06:13:40;3.67;;;3.37;;
17614;SDS011;8926;49.720;6.576;2023-10-09T06:16:12;3.63;;;3.33;;
17614;SDS011;8926;49.720;6.576;2023-10-09T06:18:56;4.30;;;3.90;;
17614;SDS011;8926;49.720;6.576;2023-10-09T06:21:36;4.40;;;4.00;;
17614;SDS011;8926;49.720;6.576;2023-10-09T06:24:25;5.07;;;3.93;;
17614;SDS011;8926;49.720;6.576;2023-10-09T06:26:58;4.53;;;4.17;;
17614;SDS011;8926;49.720;6.576;2023-10-09T06:29:27;4.30;;;3.83;;
17614;SDS011;8926;49.720;6.576;2023-10-09T06:32:09;5.40;;;4.90;;
17614;SDS011;8926;49.720;6.576;2023-10-09T06:34:59;4.63;;;4.30;;
17614;SDS011;8926;49.720;6.576;2023-10-09T06:37:48;5.33;;;4.80;;
17614;SDS011;8926;49.720;6.576;2023-10-09T06:40:27;4.60;;;4.20;;
17614;SDS011;8926;49.720;6.576;2023-10-09T06:43:10;4.33;;;4.00;;
17614;SDS011;8926;49.720;6.576;2023-10-09T06:45:52;4.87;;;3.70;;
17614;SDS011;8926;49.720;6.576;2023-10-09T06:48:37;4.23;;;3.87;;
17614;SDS011;8926;49.720;6.576;2023-10-09T06:51:06;4.17;;;3.77;;
17614;SDS011;8926;49.720;6.576;2023-10-09T06:53:37;4.50;;;4.10;;
17614;SDS011;8926;49.720;6.576;2023-10-09T06:56:19;4.77;;;4.27;;
17614;SDS011;8926;49.720;6.576;2023-10-09T06:58:54;4.13;;;3.73;;
17614;SDS011;8926;49.720;6.576;2023-10-09T07:01:41;3.23;;;3.00;;
17614;SDS011;8926;49.720;6.576;2023-10-09T07:04:12;3.33;;;3.03;;
17614;SDS011;8926;49.720;6.576;2023-10-09T07:06:44;3.23;;;3.03;;
17614;SDS011;8926;49.720;6.576;2023-10-09T07:09:10;3.10;;;2.90;;
17614;SDS011;8926;49.720;6.576;2023-10-09T07:11:36;3.20;;;2.90;;
17614;SDS011;8926;49.720;6.576;2023-10-09T07:14:06;3.90;;;3.60;;
17614;SDS011;8926;49.720;6.576;2023-10-09T07:19:23;3.87;;;3.57;;
17614;SDS011;8926;49.720;6.576;2023-10-09T07:22:20;4.00;;;3.50;;
17614;SDS011;8926;49.720;6.576;2023-10-09T07:27:19;3.40;;;3.10;;
17614;SDS011;8926;49.720;6.576;2023-10-09T07:30:05;3.20;;;2.90;;
17614;SDS011;8926;49.720;6.576;2023-10-09T07:32:52;3.13;;;2.93;;
17614;SDS011;8926;49.720;6.576;2023-10-09T07:35:19;4.50;;;4.10;;
17614;SDS011;8926;49.720;6.576;2023-10-09T07:38:05;3.47;;;3.17;;
17614;SDS011;8926;49.720;6.576;2023-10-09T07:40:33;3.83;;;3.53;;
17614;SDS011;8926;49.720;6.576;2023-10-09T07:43:25;3.87;;;3.57;;
17614;SDS011;8926;49.720;6.576;2023-10-09T07:46:01;4.33;;;3.53;;
17614;SDS011;8926;49.720;6.576;2023-10-09T07:48:30;3.73;;;3.30;;
17614;SDS011;8926;49.720;6.576;2023-10-09T07:51:14;4.13;;;3.73;;
17614;SDS011;8926;49.720;6.576;2023-10-09T07:53:41;3.30;;;3.03;;
17614;SDS011;8926;49.720;6.576;2023-10-09T07:56:10;3.30;;;3.10;;
17614;SDS011;8926;49.720;6.576;2023-10-09T07:58:38;3.27;;;3.07;;
17614;SDS011;8926;49.720;6.576;2023-10-09T08:01:13;3.50;;;3.30;;
17614;SDS011;8926;49.720;6.576;2023-10-09T08:03:59;4.57;;;4.17;;
17614;SDS011;8926;49.720;6.576;2023-10-09T08:06:35;4.70;;;4.30;;
17614;SDS011;8926;49.720;6.576;2023-10-09T08:09:07;4.07;;;3.77;;
17614;SDS011;8926;49.720;6.576;2023-10-09T08:11:44;3.37;;;3.07;;
17614;SDS011;8926;49.720;6.576;2023-10-09T08:14:12;3.70;;;3.40;;
17614;SDS011;8926;49.720;6.576;2023-10-09T08:16:56;4.30;;;3.80;;
17614;SDS011;8926;49.720;6.576;2023-10-09T08:19:41;4.10;;;3.80;;
17614;SDS011;8926;49.720;6.576;2023-10-09T08:22:21;4.67;;;4.27;;
17614;SDS011;8926;49.720;6.576;2023-10-09T08:24:54;5.07;;;4.67;;
17614;SDS011;8926;49.720;6.576;2023-10-09T08:27:22;5.90;;;5.47;;
17614;SDS011;8926;49.720;6.576;2023-10-09T08:29:54;6.43;;;4.67;;
17614;SDS011;8926;49.720;6.576;2023-10-09T08:32:39;5.17;;;4.67;;
17614;SDS011;8926;49.720;6.576;2023-10-09T08:35:05;4.70;;;4.23;;
17614;SDS011;8926;49.720;6.576;2023-10-09T08:37:44;4.20;;;3.80;;
17614;SDS011;8926;49.720;6.576;2023-10-09T08:40:13;4.03;;;3.73;;
17614;SDS011;8926;49.720;6.576;2023-10-09T08:42:43;3.63;;;3.33;;
17614;SDS011;8926;49.720;6.576;2023-10-09T08:45:14;4.23;;;3.83;;
17614;SDS011;8926;49.720;6.576;2023-10-09T08:47:47;4.40;;;4.10;;
17614;SDS011;8926;49.720;6.576;2023-10-09T08:50:14;3.83;;;3.53;;
17614;SDS011;8926;49.720;6.576;2023-10-09T08:52:40;4.23;;;3.93;;
17614;SDS011;8926;49.720;6.576;2023-10-09T08:55:05;3.60;;;3.30;;
17614;SDS011;8926;49.720;6.576;2023-10-09T08:57:32;3.63;;;3.33;;
17614;SDS011;8926;49.720;6.576;2023-10-09T08:59:58;3.03;;;2.83;;
17614;SDS011;8926;49.720;6.576;2023-10-09T09:02:23;3.10;;;2.90;;
17614;SDS011;8926;49.720;6.576;2023-10-09T09:04:49;3.57;;;3.37;;
17614;SDS011;8926;49.720;6.576;2023-10-09T09:07:24;3.23;;;2.93;;
17614;SDS011;8926;49.720;6.576;2023-10-09T09:09:59;3.10;;;2.83;;
17614;SDS011;8926;49.720;6.576;2023-10-09T09:12:46;2.90;;;2.70;;
17614;SDS011;8926;49.720;6.576;2023-10-09T09:15:18;2.20;;;2.10;;
17614;SDS011;8926;49.720;6.576;2023-10-09T09:17:44;2.57;;;2.40;;
17614;SDS011;8926;49.720;6.576;2023-10-09T09:20:25;3.70;;;3.40;;
17614;SDS011;8926;49.720;6.576;2023-10-09T09:22:59;3.00;;;2.80;;
17614;SDS011;8926;49.720;6.576;2023-10-09T09:25:24;3.47;;;3.17;;
17614;SDS011;8926;49.720;6.576;2023-10-09T09:28:09;2.97;;;2.77;;
17614;SDS011;8926;49.720;6.576;2023-10-09T09:30:37;2.80;;;2.60;;
17614;SDS011;8926;49.720;6.576;2023-10-09T09:33:24;4.83;;;3.77;;
17614;SDS011;8926;49.720;6.576;2023-10-09T09:36:01;3.37;;;3.17;;
17614;SDS011;8926;49.720;6.576;2023-10-09T09:38:28;2.93;;;2.73;;
17614;SDS011;8926;49.720;6.576;2023-10-09T09:40:56;3.00;;;2.80;;
17614;SDS011;8926;49.720;6.576;2023-10-09T09:43:22;3.23;;;2.93;;
17614;SDS011;8926;49.720;6.576;2023-10-09T09:45:48;2.90;;;2.70;;
17614;SDS011;8926;49.720;6.576;2023-10-09T09:48:16;3.57;;;3.27;;
17614;SDS011;8926;49.720;6.576;2023-10-09T09:50:42;3.57;;;3.33;;
17614;SDS011;8926;49.720;6.576;2023-10-09T09:53:12;4.70;;;4.30;;
17614;SDS011;8926;49.720;6.576;2023-10-09T09:55:50;5.00;;;4.50;;
17614;SDS011;8926;49.720;6.576;2023-10-09T09:58:22;5.63;;;4.67;;
17614;SDS011;8926;49.720;6.576;2023-10-09T10:01:07;7.70;;;4.80;;
17614;SDS011;8926;49.720;6.576;2023-10-09T10:03:50;4.70;;;4.27;;
17614;SDS011;8926;49.720;6.576;2023-10-09T10:06:21;4.67;;;3.87;;
17614;SDS011;8926;49.720;6.576;2023-10-09T10:08:51;4.30;;;3.90;;
17614;SDS011;8926;49.720;6.576;2023-10-09T10:14:18;4.83;;;4.33;;
17614;SDS011;8926;49.720;6.576;2023-10-09T10:17:06;4.50;;;4.10;;
17614;SDS011;8926;49.720;6.576;2023-10-09T10:19:59;5.07;;;4.53;;
17614;SDS011;8926;49.720;6.576;2023-10-09T10:22:42;4.97;;;4.50;;
17614;SDS011;8926;49.720;6.576;2023-10-09T10:28:16;4.77;;;4.37;;
17614;SDS011;8926;49.720;6.576;2023-10-09T10:31:03;5.67;;;5.17;;
17614;SDS011;8926;49.720;6.576;2023-10-09T10:36:20;5.70;;;5.20;;
17614;SDS011;8926;49.720;6.576;2023-10-09T10:41:35;6.73;;;4.10;;
17614;SDS011;8926;49.720;6.576;2023-10-09T10:47:11;4.03;;;3.73;;
17614;SDS011;8926;49.720;6.576;2023-10-09T10:49:51;7.07;;;4.93;;
17614;SDS011;8926;49.720;6.576;2023-10-09T10:52:23;6.27;;;4.50;;
17614;SDS011;8926;49.720;6.576;2023-10-09T10:55:10;6.27;;;5.10;;
17614;SDS011;8926;49.720;6.576;2023-10-09T10:58:16;4.40;;;3.97;;
17614;SDS011;8926;49.720;6.576;2023-10-09T11:00:52;5.30;;;3.97;;
17614;SDS011;8926;49.720;6.576;2023-10-09T11:03:37;4.30;;;3.33;;
17614;SDS011;8926;49.720;6.576;2023-10-09T11:06:25;4.27;;;3.20;;
17614;SDS011;8926;49.720;6.576;2023-10-09T11:09:04;3.93;;;3.63;;
17614;SDS011;8926;49.720;6.576;2023-10-09T11:11:35;3.97;;;3.60;;
17614;SDS011;8926;49.720;6.576;2023-10-09T11:14:08;3.40;;;3.10;;
17614;SDS011;8926;49.720;6.576;2023-10-09T11:16:39;4.10;;;3.50;;
17614;SDS011;8926;49.720;6.576;2023-10-09T11:19:13;4.63;;;4.23;;
17614;SDS011;8926;49.720;6.576;2023-10-09T11:22:09;2.90;;;2.70;;
17614;SDS011;8926;49.720;6.576;2023-10-09T11:24:35;3.63;;;3.33;;
17614;SDS011;8926;49.720;6.576;2023-10-09T11:27:05;4.27;;;3.90;;
17614;SDS011;8926;49.720;6.576;2023-10-09T11:29:32;3.77;;;3.47;;
17614;SDS011;8926;49.720;6.576;2023-10-09T11:32:07;3.70;;;3.40;;
17614;SDS011;8926;49.720;6.576;2023-10-09T11:34:43;5.07;;;4.40;;
17614;SDS011;8926;49.720;6.576;2023-10-09T11:37:17;4.00;;;3.70;;
17614;SDS011;8926;49.720;6.576;2023-10-09T11:40:03;6.87;;;4.77;;
17614;SDS011;8926;49.720;6.576;2023-10-09T11:42:48;4.87;;;4.00;;
17614;SDS011;8926;49.720;6.576;2023-10-09T11:45:21;4.50;;;3.77;;
17614;SDS011;8926;49.720;6.576;2023-10-09T11:47:53;3.27;;;2.97;;
17614;SDS011;8926;49.720;6.576;2023-10-09T11:50:55;4.27;;;3.63;;
17614;SDS011;8926;49.720;6.576;2023-10-09T11:53:41;4.17;;;3.63;;
17614;SDS011;8926;49.720;6.576;2023-10-09T11:56:14;3.97;;;3.40;;
17614;SDS011;8926;49.720;6.576;2023-10-09T11:58:46;3.30;;;3.10;;
17614;SDS011;8926;49.720;6.576;2023-10-09T12:01:14;4.37;;;3.97;;
17614;SDS011;8926;49.720;6.576;2023-10-09T12:03:45;4.43;;;4.03;;
17614;SDS011;8926;49.720;6.576;2023-10-09T12:06:18;5.07;;;4.30;;
17614;SDS011;8926;49.720;6.576;2023-10-09T12:08:45;3.90;;;3.53;;
17614;SDS011;8926;49.720;6.576;2023-10-09T12:11:14;4.13;;;3.73;;
17614;SDS011;8926;49.720;6.576;2023-10-09T12:13:48;3.73;;;3.40;;
17614;SDS011;8926;49.720;6.576;2023-10-09T12:16:13;6.00;;;4.30;;
17614;SDS011;8926;49.720;6.576;2023-10-09T12:18:40;6.37;;;4.40;;
17614;SDS011;8926;49.720;6.576;2023-10-09T12:21:06;5.13;;;3.57;;
17614;SDS011;8926;49.720;6.576;2023-10-09T12:23:32;6.93;;;4.27;;
17614;SDS011;8926;49.720;6.576;2023-10-09T12:26:01;4.20;;;3.80;;
17614;SDS011;8926;49.720;6.576;2023-10-09T12:28:27;3.67;;;3.37;;
17614;SDS011;8926;49.720;6.576;2023-10-09T12:30:53;4.00;;;3.60;;
17614;SDS011;8926;49.720;6.576;2023-10-09T12:33:19;3.60;;;3.30;;
17614;SDS011;8926;49.720;6.576;2023-10-09T12:35:52;5.70;;;4.07;;
17614;SDS011;8926;49.720;6.576;2023-10-09T12:38:23;5.00;;;3.60;;
17614;SDS011;8926;49.720;6.576;2023-10-09T12:41:00;3.30;;;3.10;;
17614;SDS011;8926;49.720;6.576;2023-10-09T12:43:43;3.70;;;3.40;;
17614;SDS011;8926;49.720;6.576;2023-10-09T12:46:09;3.67;;;3.20;;
17614;SDS011;8926;49.720;6.576;2023-10-09T12:48:34;3.17;;;2.87;;
17614;SDS011;8926;49.720;6.576;2023-10-09T12:51:00;4.47;;;3.87;;
17614;SDS011;8926;49.720;6.576;2023-10-09T12:53:31;4.40;;;4.00;;
17614;SDS011;8926;49.720;6.576;2023-10-09T12:55:59;4.27;;;3.83;;
17614;SDS011;8926;49.720;6.576;2023-10-09T12:58:24;4.47;;;3.77;;
17614;SDS011;8926;49.720;6.576;2023-10-09T13:00:52;5.03;;;3.97;;
17614;SDS011;8926;49.720;6.576;2023-10-09T13:03:17;3.60;;;3.30;;
17614;SDS011;8926;49.720;6.576;2023-10-09T13:05:50;6.00;;;4.43;;
17614;SDS011;8926;49.720;6.576;2023-10-09T13:08:23;3.23;;;3.03;;
17614;SDS011;8926;49.720;6.576;2023-10-09T13:10:56;2.90;;;2.70;;
17614;SDS011;8926;49.720;6.576;2023-10-09T13:13:28;4.97;;;3.77;;
17614;SDS011;8926;49.720;6.576;2023-10-09T13:16:15;5.83;;;4.33;;
17614;SDS011;8926;49.720;6.576;2023-10-09T13:21:21;5.37;;;4.23;;
17614;SDS011;8926;49.720;6.576;2023-10-09T13:23:48;6.10;;;3.87;;
17614;SDS011;8926;49.720;6.576;2023-10-09T13:26:19;3.83;;;3.53;;
17614;SDS011;8926;49.720;6.576;2023-10-09T13:28:51;4.83;;;4.00;;
17614;SDS011;8926;49.720;6.576;2023-10-09T13:31:18;4.57;;;4.17;;
17614;SDS011;8926;49.720;6.576;2023-10-09T13:33:46;3.93;;;3.53;;
17614;SDS011;8926;49.720;6.576;2023-10-09T13:36:12;3.70;;;3.40;;
17614;SDS011;8926;49.720;6.576;2023-10-09T13:38:44;4.10;;;3.70;;
17614;SDS011;8926;49.720;6.576;2023-10-09T13:41:12;4.03;;;3.63;;
17614;SDS011;8926;49.720;6.576;2023-10-09T13:43:38;2.93;;;2.73;;
17614;SDS011;8926;49.720;6.576;2023-10-09T13:46:06;4.83;;;3.87;;
17614;SDS011;8926;49.720;6.576;2023-10-09T13:48:33;3.33;;;3.03;;
17614;SDS011;8926;49.720;6.576;2023-10-09T13:51:03;3.63;;;2.83;;
17614;SDS011;8926;49.720;6.576;2023-10-09T13:53:33;5.17;;;3.87;;
17614;SDS011;8926;49.720;6.576;2023-10-09T13:56:10;3.00;;;2.80;;
17614;SDS011;8926;49.720;6.576;2023-10-09T13:58:46;3.27;;;2.97;;
17614;SDS011;8926;49.720;6.576;2023-10-09T14:01:11;2.50;;;2.30;;
17614;SDS011;8926;49.720;6.576;2023-10-09T14:03:45;3.67;;;3.37;;
17614;SDS011;8926;49.720;6.576;2023-10-09T14:06:14;2.60;;;2.37;;
17614;SDS011;8926;49.720;6.576;2023-10-09T14:08:44;2.50;;;2.30;;
17614;SDS011;8926;49.720;6.576;2023-10-09T14:11:10;2.20;;;2.10;;
17614;SDS011;8926;49.720;6.576;2023-10-09T14:13:38;2.17;;;1.97;;
17614;SDS011;8926;49.720;6.576;2023-10-09T14:16:04;2.10;;;2.00;;
17614;SDS011;8926;49.720;6.576;2023-10-09T14:18:31;2.03;;;1.83;;
17614;SDS011;8926;49.720;6.576;2023-10-09T14:21:00;1.30;;;1.20;;
17614;SDS011;8926;49.720;6.576;2023-10-09T14:23:29;1.73;;;1.63;;
17614;SDS011;8926;49.720;6.576;2023-10-09T14:25:57;1.60;;;1.50;;
17614;SDS011;8926;49.720;6.576;2023-10-09T14:28:26;1.73;;;1.63;;
17614;SDS011;8926;49.720;6.576;2023-10-09T14:30:54;2.13;;;1.77;;
17614;SDS011;8926;49.720;6.576;2023-10-09T14:33:24;1.60;;;1.50;;
17614;SDS011;8926;49.720;6.576;2023-10-09T14:35:50;1.57;;;1.47;;
17614;SDS011;8926;49.720;6.576;2023-10-09T14:38:17;1.53;;;1.43;;
17614;SDS011;8926;49.720;6.576;2023-10-09T14:40:46;2.13;;;1.93;;
17614;SDS011;8926;49.720;6.576;2023-10-09T14:43:13;1.87;;;1.77;;
17614;SDS011;8926;49.720;6.576;2023-10-09T14:45:45;2.10;;;1.90;;
17614;SDS011;8926;49.720;6.576;2023-10-09T14:48:16;1.77;;;1.67;;
17614;SDS011;8926;49.720;6.576;2023-10-09T14:50:50;2.20;;;2.10;;
17614;SDS011;8926;49.720;6.576;2023-10-09T14:53:20;1.80;;;1.70;;
17614;SDS011;8926;49.720;6.576;2023-10-09T14:55:46;1.77;;;1.67;;
17614;SDS011;8926;49.720;6.576;2023-10-09T14:58:13;2.00;;;1.90;;
17614;SDS011;8926;49.720;6.576;2023-10-09T15:00:38;1.70;;;1.60;;
17614;SDS011;8926;49.720;6.576;2023-10-09T15:03:11;1.80;;;1.70;;
17614;SDS011;8926;49.720;6.576;2023-10-09T15:05:42;1.63;;;1.53;;
17614;SDS011;8926;49.720;6.576;2023-10-09T15:08:07;1.70;;;1.60;;
17614;SDS011;8926;49.720;6.576;2023-10-09T15:10:46;1.93;;;1.83;;
17614;SDS011;8926;49.720;6.576;2023-10-09T15:13:20;2.00;;;1.90;;
17614;SDS011;8926;49.720;6.576;2023-10-09T15:15:52;2.43;;;2.23;;
17614;SDS011;8926;49.720;6.576;2023-10-09T15:18:19;2.00;;;1.87;;
17614;SDS011;8926;49.720;6.576;2023-10-09T15:20:46;3.47;;;2.67;;
17614;SDS011;8926;49.720;6.576;2023-10-09T15:23:12;1.97;;;1.87;;
17614;SDS011;8926;49.720;6.576;2023-10-09T15:25:38;2.00;;;1.87;;
17614;SDS011;8926;49.720;6.576;2023-10-09T15:28:10;2.10;;;1.90;;
17614;SDS011;8926;49.720;6.576;2023-10-09T15:30:36;2.03;;;1.90;;
17614;SDS011;8926;49.720;6.576;2023-10-09T15:33:06;2.30;;;2.07;;
17614;SDS011;8926;49.720;6.576;2023-10-09T15:35:32;2.40;;;2.20;;
17614;SDS011;8926;49.720;6.576;2023-10-09T15:38:01;2.23;;;2.03;;
17614;SDS011;8926;49.720;6.576;2023-10-09T15:40:28;2.30;;;2.10;;
17614;SDS011;8926;49.720;6.576;2023-10-09T15:43:01;2.30;;;2.10;;
17614;SDS011;8926;49.720;6.576;2023-10-09T15:45:29;2.70;;;2.50;;
17614;SDS011;8926;49.720;6.576;2023-10-09T15:48:05;2.33;;;2.13;;
17614;SDS011;8926;49.720;6.576;2023-10-09T15:50:31;2.60;;;2.40;;
17614;SDS011;8926;49.720;6.576;2023-10-09T15:52:59;2.10;;;2.00;;
17614;SDS011;8926;49.720;6.576;2023-10-09T15:55:27;3.10;;;2.90;;
17614;SDS011;8926;49.720;6.576;2023-10-09T15:57:52;3.57;;;3.27;;
17614;SDS011;8926;49.720;6.576;2023-10-09T16:00:19;3.83;;;3.33;;
17614;SDS011;8926;49.720;6.576;2023-10-09T16:02:48;3.37;;;3.10;;